createdAt,value
2023-04-30T00:01:31.835Z,3.58
2023-04-30T00:04:00.281Z,3.95
2023-04-30T00:06:28.982Z,5.25
2023-04-30T00:08:59.195Z,3.67
2023-04-30T00:11:27.930Z,3.60
2023-04-30T00:13:57.334Z,3.78
2023-04-30T00:16:26.876Z,4.65
2023-04-30T00:18:56.303Z,2.88
2023-04-30T00:21:24.858Z,3.95
2023-04-30T00:23:53.476Z,5.85
2023-04-30T00:26:22.099Z,3.83
2023-04-30T00:28:51.251Z,3.80
2023-04-30T00:31:20.373Z,4.80
2023-04-30T00:33:49.901Z,4.95
2023-04-30T00:36:18.702Z,3.35
2023-04-30T00:38:46.997Z,5.70
2023-04-30T00:41:16.361Z,3.50
2023-04-30T00:43:46.889Z,4.75
2023-04-30T00:46:15.549Z,6.05
2023-04-30T00:48:44.388Z,6.05
2023-04-30T00:51:12.994Z,4.80
2023-04-30T00:53:41.628Z,3.03
2023-04-30T00:56:10.621Z,4.72
2023-04-30T00:58:41.809Z,3.40
2023-04-30T01:01:11.459Z,5.40
2023-04-30T01:03:48.142Z,4.40
2023-04-30T01:06:19.163Z,5.88
2023-04-30T01:08:51.167Z,6.40
2023-04-30T01:11:23.351Z,5.15
2023-04-30T01:14:05.859Z,5.40
2023-04-30T01:16:37.062Z,5.70
2023-04-30T01:19:21.538Z,3.80
2023-04-30T01:24:36.542Z,5.72
2023-04-30T01:27:14.803Z,5.70
2023-04-30T01:29:43.431Z,6.68
2023-04-30T01:32:11.933Z,4.63
2023-04-30T01:34:40.949Z,3.88
2023-04-30T01:37:17.278Z,4.03
2023-04-30T01:39:58.415Z,4.40
2023-04-30T01:42:51.000Z,5.70
2023-04-30T01:45:28.493Z,5.45
2023-04-30T01:48:00.164Z,7.88
2023-04-30T01:50:29.736Z,5.18
2023-04-30T01:53:00.915Z,7.68
2023-04-30T01:55:35.981Z,6.03
2023-04-30T01:58:06.563Z,6.43
2023-04-30T02:00:34.903Z,6.25
2023-04-30T02:03:19.417Z,4.65
2023-04-30T02:05:54.061Z,6.30
2023-04-30T02:08:22.842Z,6.07
2023-04-30T02:10:55.743Z,5.82
2023-04-30T02:13:24.493Z,4.82
2023-04-30T02:15:57.356Z,5.78
2023-04-30T02:18:29.237Z,5.90
2023-04-30T02:21:01.505Z,5.63
2023-04-30T02:23:32.157Z,5.50
2023-04-30T02:26:00.761Z,6.47
2023-04-30T02:28:30.614Z,6.50
2023-04-30T02:30:59.487Z,8.45
2023-04-30T02:33:31.796Z,6.90
2023-04-30T02:36:01.260Z,6.47
2023-04-30T02:38:32.204Z,5.72
2023-04-30T02:41:02.311Z,6.57
2023-04-30T02:43:31.782Z,7.78
2023-04-30T02:46:02.193Z,6.97
2023-04-30T02:48:36.674Z,7.85
2023-04-30T02:51:08.464Z,6.00
2023-04-30T02:53:37.017Z,5.88
2023-04-30T02:56:06.860Z,6.68
2023-04-30T02:58:38.306Z,7.80
2023-04-30T03:01:10.683Z,6.38
2023-04-30T03:03:39.293Z,8.05
2023-04-30T03:06:09.892Z,6.85
2023-04-30T03:08:41.519Z,6.13
2023-04-30T03:11:09.901Z,6.88
2023-04-30T03:13:38.463Z,8.95
2023-04-30T03:16:07.293Z,6.60
2023-04-30T03:18:38.288Z,7.70
2023-04-30T03:21:10.670Z,7.90
2023-04-30T03:23:39.285Z,8.45
2023-04-30T03:26:10.640Z,11.27
2023-04-30T03:28:39.600Z,5.45
2023-04-30T03:31:11.795Z,6.28
2023-04-30T03:33:40.810Z,10.85
2023-04-30T03:36:09.967Z,10.02
2023-04-30T03:38:39.482Z,11.35
2023-04-30T03:41:08.489Z,11.27
2023-04-30T03:43:38.849Z,9.50
2023-04-30T03:46:08.646Z,8.30
2023-04-30T03:48:39.566Z,9.38
2023-04-30T03:51:11.331Z,11.55
2023-04-30T03:53:40.761Z,8.82
2023-04-30T03:56:12.692Z,11.45
2023-04-30T03:58:41.198Z,10.07
2023-04-30T04:01:13.233Z,9.93
2023-04-30T04:03:46.639Z,12.15
2023-04-30T04:06:17.160Z,8.52
2023-04-30T04:08:45.683Z,13.18
2023-04-30T04:11:14.284Z,8.68
2023-04-30T04:13:44.139Z,12.43
2023-04-30T04:16:12.533Z,10.75
2023-04-30T04:18:41.634Z,9.43
2023-04-30T04:21:10.792Z,12.70
2023-04-30T04:23:40.032Z,8.05
2023-04-30T04:26:10.464Z,14.52
2023-04-30T04:28:40.087Z,11.02
2023-04-30T04:31:15.864Z,15.95
2023-04-30T04:33:58.735Z,9.63
2023-04-30T04:36:30.434Z,8.60
2023-04-30T04:39:02.413Z,12.07
2023-04-30T04:41:35.466Z,11.73
2023-04-30T04:44:05.298Z,10.05
2023-04-30T04:46:38.545Z,14.95
2023-04-30T04:49:09.573Z,8.52
2023-04-30T04:51:47.319Z,12.00
2023-04-30T04:56:48.650Z,14.23
2023-04-30T04:59:18.377Z,12.85
2023-04-30T05:01:51.574Z,12.48
2023-04-30T05:04:20.760Z,11.85
2023-04-30T05:06:52.568Z,11.27
2023-04-30T05:09:21.614Z,10.80
2023-04-30T05:11:50.810Z,11.20
2023-04-30T05:14:20.874Z,12.40
2023-04-30T05:16:49.761Z,10.80
2023-04-30T05:19:17.980Z,12.77
2023-04-30T05:21:46.904Z,14.43
2023-04-30T05:24:17.794Z,12.13
2023-04-30T05:26:46.550Z,11.07
2023-04-30T05:29:17.818Z,13.10
2023-04-30T05:31:47.008Z,12.40
2023-04-30T05:34:17.995Z,13.23
2023-04-30T05:36:46.438Z,10.27
2023-04-30T05:39:17.002Z,13.45
2023-04-30T05:41:45.798Z,12.40
2023-04-30T05:44:14.846Z,13.43
2023-04-30T05:46:43.467Z,13.38
2023-04-30T05:49:14.838Z,10.85
2023-04-30T05:51:43.469Z,13.18
2023-04-30T05:54:11.833Z,13.80
2023-04-30T05:56:40.320Z,14.30
2023-04-30T05:59:08.986Z,13.55
2023-04-30T06:01:37.840Z,10.45
2023-04-30T06:04:09.389Z,14.13
2023-04-30T06:06:38.424Z,9.70
2023-04-30T06:09:07.549Z,10.63
2023-04-30T06:11:37.266Z,12.85
2023-04-30T06:14:11.273Z,12.70
2023-04-30T06:16:40.647Z,10.38
2023-04-30T06:19:13.083Z,7.93
2023-04-30T06:21:44.189Z,10.00
2023-04-30T06:24:12.588Z,9.82
2023-04-30T06:26:41.019Z,12.30
2023-04-30T06:29:09.604Z,7.32
2023-04-30T06:31:37.962Z,9.25
2023-04-30T06:34:06.407Z,10.82
2023-04-30T06:36:40.312Z,7.30
2023-04-30T06:39:10.338Z,6.80
2023-04-30T06:41:39.096Z,7.40
2023-04-30T06:44:11.363Z,8.68
2023-04-30T06:46:42.380Z,10.18
2023-04-30T06:49:11.520Z,7.00
2023-04-30T06:51:44.684Z,7.97
2023-04-30T06:54:14.374Z,6.93
2023-04-30T06:56:45.658Z,7.03
2023-04-30T06:59:15.524Z,5.88
2023-04-30T07:01:47.021Z,4.93
2023-04-30T07:04:20.101Z,6.88
2023-04-30T07:06:49.468Z,7.35
2023-04-30T07:09:22.484Z,5.47
2023-04-30T07:11:51.281Z,6.75
2023-04-30T07:14:20.189Z,6.25
2023-04-30T07:16:50.897Z,7.30
2023-04-30T07:19:26.967Z,5.97
2023-04-30T07:21:55.553Z,6.45
2023-04-30T07:24:26.029Z,6.18
2023-04-30T07:26:56.648Z,7.75
2023-04-30T07:29:26.171Z,6.68
2023-04-30T07:31:56.586Z,4.88
2023-04-30T07:34:27.971Z,6.90
2023-04-30T07:36:56.858Z,4.95
2023-04-30T07:39:27.882Z,6.38
2023-04-30T07:41:57.205Z,6.07
2023-04-30T07:44:26.714Z,7.18
2023-04-30T07:46:56.039Z,5.75
2023-04-30T07:49:24.419Z,7.60
2023-04-30T07:51:55.498Z,5.00
2023-04-30T07:54:27.208Z,5.40
2023-04-30T07:56:58.946Z,5.50
2023-04-30T07:59:31.241Z,6.35
2023-04-30T08:02:00.272Z,6.63
2023-04-30T08:04:30.073Z,5.35
2023-04-30T08:07:01.872Z,3.97
2023-04-30T08:09:33.201Z,5.50
2023-04-30T08:12:05.026Z,6.15
2023-04-30T08:14:37.401Z,4.22
2023-04-30T08:17:07.337Z,6.03
2023-04-30T08:19:39.881Z,7.60
2023-04-30T08:22:18.593Z,4.13
2023-04-30T08:24:47.777Z,4.80
2023-04-30T08:27:17.166Z,5.28
2023-04-30T08:29:45.907Z,5.45
2023-04-30T08:32:24.405Z,4.22
2023-04-30T08:34:57.851Z,3.85
2023-04-30T08:37:42.318Z,5.15
2023-04-30T08:40:16.590Z,5.20
2023-04-30T08:43:07.349Z,3.42
2023-04-30T08:45:41.778Z,7.55
2023-04-30T08:48:15.178Z,3.88
2023-04-30T08:50:50.374Z,4.38
2023-04-30T08:53:21.505Z,4.93
2023-04-30T08:58:21.254Z,3.35
2023-04-30T09:00:50.964Z,3.63
2023-04-30T09:03:38.853Z,6.40
2023-04-30T09:06:16.163Z,3.50
2023-04-30T09:08:49.977Z,2.83
2023-04-30T09:11:28.276Z,3.00
2023-04-30T09:14:01.394Z,2.60
2023-04-30T09:16:46.824Z,1.77
2023-04-30T09:19:28.969Z,2.60
2023-04-30T09:22:19.360Z,2.78
2023-04-30T09:24:54.319Z,2.55
2023-04-30T09:27:27.419Z,2.67
2023-04-30T09:29:58.123Z,2.40
2023-04-30T09:35:37.240Z,2.80
2023-04-30T09:38:32.220Z,1.70
2023-04-30T09:41:08.721Z,2.00
2023-04-30T09:43:45.668Z,2.03
2023-04-30T09:46:23.019Z,3.05
2023-04-30T09:48:59.265Z,2.20
2023-04-30T09:51:33.466Z,2.28
2023-04-30T09:54:07.450Z,1.70
2023-04-30T09:56:41.712Z,1.88
2023-04-30T09:59:10.773Z,2.67
2023-04-30T10:01:41.163Z,1.77
2023-04-30T10:04:11.088Z,2.90
2023-04-30T10:06:48.701Z,2.47
2023-04-30T10:09:48.585Z,1.35
2023-04-30T10:12:25.782Z,1.70
2023-04-30T10:15:04.432Z,2.22
2023-04-30T10:17:41.002Z,1.85
2023-04-30T10:20:11.064Z,1.10
2023-04-30T10:22:43.793Z,0.82
2023-04-30T10:25:13.748Z,1.42
2023-04-30T10:27:56.218Z,4.47
2023-04-30T10:30:36.424Z,1.85
2023-04-30T10:33:33.243Z,1.23
2023-04-30T10:36:09.285Z,1.67
2023-04-30T10:38:38.672Z,1.45
2023-04-30T10:41:09.806Z,1.30
2023-04-30T10:43:39.172Z,1.08
2023-04-30T10:46:09.370Z,2.20
2023-04-30T10:48:38.113Z,1.35
2023-04-30T10:51:21.072Z,1.02
2023-04-30T10:54:01.241Z,1.10
2023-04-30T10:56:40.838Z,1.05
2023-04-30T10:59:10.585Z,1.60
2023-04-30T11:01:58.426Z,1.30
2023-04-30T11:04:35.224Z,1.63
2023-04-30T11:07:09.602Z,1.25
2023-04-30T11:09:43.518Z,2.08
2023-04-30T11:14:51.113Z,2.65
2023-04-30T11:17:23.873Z,0.88
2023-04-30T11:19:55.445Z,1.05
2023-04-30T11:22:25.878Z,1.00
2023-04-30T11:24:56.086Z,1.20
2023-04-30T11:27:25.834Z,0.98
2023-04-30T11:29:54.777Z,0.85
2023-04-30T11:32:24.967Z,0.70
2023-04-30T11:34:55.582Z,0.88
2023-04-30T11:37:31.694Z,2.63
2023-04-30T11:40:04.898Z,0.70
2023-04-30T11:42:46.791Z,0.63
2023-04-30T11:45:22.801Z,1.98
2023-04-30T11:47:55.210Z,1.13
2023-04-30T11:50:29.809Z,0.80
2023-04-30T11:53:02.961Z,3.08
2023-04-30T11:55:32.820Z,0.50
2023-04-30T11:58:04.458Z,0.60
2023-04-30T12:00:41.275Z,1.52
2023-04-30T12:03:34.677Z,1.13
2023-04-30T12:06:05.330Z,1.38
2023-04-30T12:08:40.381Z,0.73
2023-04-30T12:11:22.152Z,0.85
2023-04-30T12:14:11.110Z,0.40
2023-04-30T12:16:40.807Z,0.80
2023-04-30T12:19:12.180Z,0.88
2023-04-30T12:21:42.308Z,0.40
2023-04-30T12:24:12.349Z,0.57
2023-04-30T12:26:50.218Z,0.40
2023-04-30T12:29:26.807Z,1.48
2023-04-30T12:31:58.042Z,0.63
2023-04-30T12:34:38.969Z,0.95
2023-04-30T12:37:08.821Z,0.68
2023-04-30T12:39:37.606Z,1.00
2023-04-30T12:42:06.378Z,0.82
2023-04-30T12:44:43.868Z,0.57
2023-04-30T12:47:14.349Z,0.50
2023-04-30T12:49:47.644Z,0.65
2023-04-30T12:52:17.737Z,0.40
2023-04-30T12:54:47.512Z,0.43
2023-04-30T12:57:26.067Z,0.40
2023-04-30T12:59:55.846Z,0.40
2023-04-30T13:02:25.611Z,0.60
2023-04-30T13:04:54.685Z,0.40
2023-04-30T13:07:26.914Z,0.40
2023-04-30T13:09:58.457Z,0.40
2023-04-30T13:12:27.259Z,0.47
2023-04-30T13:14:57.961Z,0.70
2023-04-30T13:17:36.527Z,1.58
2023-04-30T13:20:14.922Z,0.40
2023-04-30T13:22:50.990Z,0.88
2023-04-30T13:25:22.142Z,0.70
2023-04-30T13:27:51.296Z,0.85
2023-04-30T13:30:24.796Z,0.65
2023-04-30T13:33:14.929Z,0.30
2023-04-30T13:35:46.611Z,0.50
2023-04-30T13:38:15.491Z,0.40
2023-04-30T13:40:43.836Z,0.32
2023-04-30T13:43:15.454Z,1.33
2023-04-30T13:45:47.495Z,0.40
2023-04-30T13:48:21.751Z,0.40
2023-04-30T13:51:01.252Z,0.40
2023-04-30T13:53:41.697Z,0.20
2023-04-30T13:56:18.598Z,0.50
2023-04-30T13:58:54.298Z,0.77
2023-04-30T14:01:24.534Z,0.90
2023-04-30T14:04:01.979Z,1.00
2023-04-30T14:06:33.878Z,0.30
2023-04-30T14:09:02.592Z,0.70
2023-04-30T14:11:49.456Z,0.30
2023-04-30T14:14:18.057Z,0.30
2023-04-30T14:16:46.757Z,0.60
2023-04-30T14:19:16.008Z,1.30
2023-04-30T14:21:45.401Z,1.08
2023-04-30T14:24:16.334Z,0.38
2023-04-30T14:26:45.861Z,0.35
2023-04-30T14:29:14.650Z,0.40
2023-04-30T14:31:52.551Z,0.35
2023-04-30T14:34:24.493Z,2.25
2023-04-30T14:36:59.408Z,0.40
2023-04-30T14:39:47.094Z,0.40
2023-04-30T14:42:23.125Z,0.30
2023-04-30T14:44:57.218Z,0.30
2023-04-30T14:47:27.449Z,1.40
2023-04-30T14:50:02.214Z,0.40
2023-04-30T14:52:45.404Z,0.40
2023-04-30T14:55:20.748Z,0.20
2023-04-30T14:57:50.184Z,0.28
2023-04-30T15:00:34.463Z,0.25
2023-04-30T15:03:22.449Z,0.32
2023-04-30T15:05:51.702Z,0.30
2023-04-30T15:08:22.757Z,0.20
2023-04-30T15:10:55.075Z,0.10
2023-04-30T15:13:28.644Z,0.40
2023-04-30T15:15:57.068Z,0.85
2023-04-30T15:18:25.507Z,1.15
2023-04-30T15:20:57.533Z,2.08
2023-04-30T15:23:25.811Z,0.30
2023-04-30T15:25:55.323Z,0.40
2023-04-30T15:28:38.890Z,0.30
2023-04-30T15:31:17.356Z,0.30
2023-04-30T15:33:53.686Z,0.32
2023-04-30T15:36:23.407Z,0.30
2023-04-30T15:38:54.853Z,0.35
2023-04-30T15:41:23.197Z,0.13
2023-04-30T15:43:54.749Z,0.30
2023-04-30T15:46:23.159Z,0.50
2023-04-30T15:48:51.628Z,0.30
2023-04-30T15:51:22.444Z,0.30
2023-04-30T15:53:54.442Z,0.40
2023-04-30T15:56:25.761Z,1.95
2023-04-30T15:58:59.429Z,0.32
2023-04-30T16:01:33.155Z,0.60
2023-04-30T16:04:21.289Z,0.30
2023-04-30T16:06:57.669Z,0.40
2023-04-30T16:09:26.953Z,0.73
2023-04-30T16:11:56.700Z,0.30
2023-04-30T16:14:26.065Z,1.00
2023-04-30T16:16:55.669Z,0.45
2023-04-30T16:19:32.502Z,0.20
2023-04-30T16:22:02.334Z,2.03
2023-04-30T16:24:35.277Z,0.67
2023-04-30T16:27:11.922Z,0.55
2023-04-30T16:29:43.821Z,0.93
2023-04-30T16:32:18.101Z,0.20
2023-04-30T16:34:49.947Z,0.40
2023-04-30T16:37:19.269Z,0.57
2023-04-30T16:39:47.519Z,0.30
2023-04-30T16:42:16.249Z,0.65
2023-04-30T16:44:45.182Z,0.45
2023-04-30T16:47:17.402Z,0.30
2023-04-30T16:49:46.019Z,0.20
2023-04-30T16:52:16.295Z,0.30
2023-04-30T16:54:45.657Z,1.20
2023-04-30T16:57:25.124Z,0.80
2023-04-30T16:59:58.277Z,0.90
2023-04-30T17:02:49.026Z,0.63
2023-04-30T17:05:22.407Z,0.50
2023-04-30T17:07:51.043Z,1.55
2023-04-30T17:10:31.028Z,0.20
2023-04-30T17:13:03.963Z,1.15
2023-04-30T17:15:36.642Z,0.35
2023-04-30T17:18:15.290Z,0.60
2023-04-30T17:20:49.688Z,0.88
2023-04-30T17:23:18.754Z,0.40
2023-04-30T17:25:48.741Z,1.65
2023-04-30T17:28:18.430Z,1.02
2023-04-30T17:30:58.459Z,0.63
2023-04-30T17:33:34.673Z,1.35
2023-04-30T17:36:05.675Z,0.40
2023-04-30T17:38:37.224Z,1.35
2023-04-30T17:41:15.309Z,0.20
2023-04-30T17:43:44.666Z,0.20
2023-04-30T17:46:16.731Z,0.50
2023-04-30T17:48:45.386Z,0.40
2023-04-30T17:51:16.275Z,1.85
2023-04-30T17:53:45.225Z,0.20
2023-04-30T17:56:13.957Z,0.73
2023-04-30T17:58:42.877Z,0.52
2023-04-30T18:01:14.752Z,0.45
2023-04-30T18:03:51.868Z,0.40
2023-04-30T18:06:21.021Z,0.73
2023-04-30T18:08:49.865Z,0.80
2023-04-30T18:11:18.610Z,0.95
2023-04-30T18:13:47.215Z,2.20
2023-04-30T18:16:17.862Z,1.20
2023-04-30T18:18:49.615Z,1.27
2023-04-30T18:21:18.186Z,0.40
2023-04-30T18:23:48.025Z,0.30
2023-04-30T18:26:24.872Z,0.20
2023-04-30T18:29:06.960Z,0.32
2023-04-30T18:31:38.571Z,0.82
2023-04-30T18:34:11.390Z,0.40
2023-04-30T18:36:45.652Z,0.50
2023-04-30T18:39:22.351Z,0.80
2023-04-30T18:41:59.024Z,0.28
2023-04-30T18:44:32.476Z,2.15
2023-04-30T18:47:01.282Z,0.40
2023-04-30T18:49:36.394Z,0.30
2023-04-30T18:52:08.700Z,1.25
2023-04-30T18:54:37.877Z,0.40
2023-04-30T18:57:09.506Z,0.50
2023-04-30T18:59:39.409Z,0.82
2023-04-30T19:02:09.569Z,0.60
2023-04-30T19:04:39.039Z,0.75
2023-04-30T19:07:09.883Z,0.50
2023-04-30T19:09:48.288Z,0.70
2023-04-30T19:12:27.447Z,1.85
2023-04-30T19:14:56.804Z,2.35
2023-04-30T19:17:27.451Z,0.43
2023-04-30T19:20:01.043Z,1.83
2023-04-30T19:22:37.770Z,0.55
2023-04-30T19:25:12.531Z,0.73
2023-04-30T19:27:44.068Z,0.50
2023-04-30T19:30:14.358Z,0.75
2023-04-30T19:33:02.077Z,0.68
2023-04-30T19:35:35.837Z,1.23
2023-04-30T19:38:08.062Z,0.57
2023-04-30T19:40:39.695Z,1.30
2023-04-30T19:43:13.320Z,0.52
2023-04-30T19:45:47.913Z,0.88
2023-04-30T19:48:23.857Z,0.60
2023-04-30T19:50:58.174Z,0.90
2023-04-30T19:53:29.074Z,0.60
2023-04-30T19:55:59.799Z,0.60
2023-04-30T19:58:28.399Z,0.50
2023-04-30T20:01:03.168Z,0.80
2023-04-30T20:03:48.190Z,1.20
2023-04-30T20:06:21.140Z,1.40
2023-04-30T20:08:53.386Z,2.05
2023-04-30T20:11:22.782Z,0.60
2023-04-30T20:13:52.752Z,0.82
2023-04-30T20:16:21.659Z,1.10
2023-04-30T20:18:52.559Z,0.77
2023-04-30T20:21:24.942Z,0.50
2023-04-30T20:23:53.234Z,2.10
2023-04-30T20:26:21.576Z,0.60
2023-04-30T20:28:54.498Z,1.05
2023-04-30T20:31:24.913Z,1.83
2023-04-30T20:33:58.255Z,0.63
2023-04-30T20:36:32.402Z,0.80
2023-04-30T20:39:08.759Z,0.85
2023-04-30T20:41:42.204Z,0.70
2023-04-30T20:44:12.443Z,0.68
2023-04-30T20:46:43.157Z,1.25
2023-04-30T20:49:14.595Z,1.77
2023-04-30T20:51:45.725Z,2.58
2023-04-30T20:54:15.030Z,2.80
2023-04-30T20:56:47.196Z,1.23
2023-04-30T20:59:15.874Z,1.70
2023-04-30T21:01:45.313Z,3.72
2023-04-30T21:04:16.896Z,1.60
2023-04-30T21:06:45.456Z,0.80
2023-04-30T21:09:17.483Z,1.25
2023-04-30T21:11:46.504Z,0.95
2023-04-30T21:14:18.015Z,2.05
2023-04-30T21:16:46.631Z,1.00
2023-04-30T21:19:17.659Z,2.97
2023-04-30T21:21:46.444Z,0.75
2023-04-30T21:24:15.403Z,1.45
2023-04-30T21:26:43.808Z,1.65
2023-04-30T21:29:12.442Z,0.95
2023-04-30T21:31:44.790Z,1.13
2023-04-30T21:34:15.813Z,2.40
2023-04-30T21:36:44.166Z,1.30
2023-04-30T21:39:12.510Z,1.67
2023-04-30T21:41:44.820Z,1.75
2023-04-30T21:44:13.391Z,1.27
2023-04-30T21:46:42.276Z,2.25
2023-04-30T21:49:13.602Z,1.50
2023-04-30T21:51:42.100Z,2.42
2023-04-30T21:54:12.780Z,1.95
2023-04-30T21:56:41.088Z,3.60
2023-04-30T21:59:09.412Z,1.90
2023-04-30T22:01:38.325Z,2.80
2023-04-30T22:04:06.833Z,1.45
2023-04-30T22:06:35.978Z,1.80
2023-04-30T22:09:05.488Z,2.30
2023-04-30T22:11:33.813Z,2.45
2023-04-30T22:14:04.098Z,3.80
2023-04-30T22:16:33.027Z,1.40
2023-04-30T22:19:01.762Z,1.52
2023-04-30T22:21:30.976Z,1.60
2023-04-30T22:24:02.712Z,1.48
2023-04-30T22:26:31.747Z,2.13
2023-04-30T22:29:01.006Z,1.83
2023-04-30T22:31:31.681Z,2.28
2023-04-30T22:34:00.854Z,2.42
2023-04-30T22:36:30.627Z,3.28
2023-04-30T22:39:00.310Z,1.00
2023-04-30T22:41:34.228Z,2.17
2023-04-30T22:44:03.696Z,2.08
2023-04-30T22:46:33.635Z,1.00
2023-04-30T22:49:04.463Z,2.13
2023-04-30T22:51:37.283Z,1.02
2023-04-30T22:54:06.271Z,3.75
2023-04-30T22:56:39.412Z,2.95
2023-04-30T22:59:10.565Z,1.27
2023-04-30T23:01:42.977Z,2.15
2023-04-30T23:04:15.230Z,2.30
2023-04-30T23:06:44.536Z,1.70
2023-04-30T23:09:15.909Z,1.23
2023-04-30T23:11:44.821Z,2.03
2023-04-30T23:14:15.734Z,3.35
2023-04-30T23:16:44.204Z,1.75
2023-04-30T23:19:12.916Z,1.38
2023-04-30T23:21:41.301Z,2.03
2023-04-30T23:24:11.252Z,1.20
2023-04-30T23:26:40.025Z,2.40
2023-04-30T23:29:13.290Z,1.83
2023-04-30T23:31:42.146Z,1.63
2023-04-30T23:34:13.251Z,0.70
2023-04-30T23:36:42.440Z,2.47
2023-04-30T23:39:11.564Z,2.97
2023-04-30T23:41:40.673Z,1.95
2023-04-30T23:44:09.230Z,1.40
2023-04-30T23:46:37.696Z,1.65
2023-04-30T23:49:09.892Z,0.98
2023-04-30T23:51:41.483Z,1.25
2023-04-30T23:54:12.036Z,1.10
2023-04-30T23:56:41.391Z,1.25
2023-04-30T23:59:09.898Z,1.15
